createdAt,value
2018-09-11T00:01:27.795Z,100730.00
2018-09-11T00:03:58.280Z,100737.00
2018-09-11T00:06:28.535Z,100742.00
2018-09-11T00:08:58.877Z,100736.00
2018-09-11T00:11:29.065Z,100735.00
2018-09-11T00:13:59.712Z,100739.00
2018-09-11T00:16:30.076Z,100737.00
2018-09-11T00:19:00.337Z,100735.00
2018-09-11T00:21:30.740Z,100735.00
2018-09-11T00:24:01.205Z,100735.00
2018-09-11T00:26:31.601Z,100732.00
2018-09-11T00:29:01.833Z,100730.00
2018-09-11T00:31:32.301Z,100729.00
2018-09-11T00:34:02.519Z,100731.00
2018-09-11T00:36:32.771Z,100732.00
2018-09-11T00:39:03.328Z,100744.00
2018-09-11T00:41:33.721Z,100743.00
2018-09-11T00:44:03.977Z,100745.00
2018-09-11T00:46:34.342Z,100752.00
2018-09-11T00:49:04.693Z,100752.00
2018-09-11T00:51:34.847Z,100752.00
2018-09-11T00:54:05.296Z,100749.00
2018-09-11T00:56:35.630Z,100755.00
2018-09-11T00:59:06.009Z,100756.00
2018-09-11T01:01:36.147Z,100764.00
2018-09-11T01:04:06.361Z,100764.00
2018-09-11T01:06:36.834Z,100770.00
2018-09-11T01:09:12.055Z,100767.00
2018-09-11T01:11:42.408Z,100773.00
2018-09-11T01:14:12.763Z,100771.00
2018-09-11T01:16:42.864Z,100776.00
2018-09-11T01:19:13.024Z,100777.00
2018-09-11T01:21:43.124Z,100775.00
2018-09-11T01:24:14.723Z,100770.00
2018-09-11T01:26:45.723Z,100772.00
2018-09-11T01:29:16.212Z,100771.00
2018-09-11T01:31:46.643Z,100774.00
2018-09-11T01:34:19.983Z,100773.00
2018-09-11T01:36:50.240Z,100775.00
2018-09-11T01:39:20.423Z,100778.00
2018-09-11T01:41:50.617Z,100779.00
2018-09-11T01:44:20.752Z,100782.00
2018-09-11T01:46:50.920Z,100782.00
2018-09-11T01:49:21.100Z,100785.00
2018-09-11T01:51:54.825Z,100788.00
2018-09-11T01:54:27.641Z,100782.00
2018-09-11T01:56:57.901Z,100795.00
2018-09-11T01:59:28.383Z,100800.00
2018-09-11T02:01:58.582Z,100793.00
2018-09-11T02:04:29.108Z,100799.00
2018-09-11T02:06:59.630Z,100799.00
2018-09-11T02:09:29.857Z,100798.00
2018-09-11T02:12:00.294Z,100803.00
2018-09-11T02:14:31.152Z,100807.00
2018-09-11T02:17:01.576Z,100809.00
2018-09-11T02:19:31.855Z,100815.00
2018-09-11T02:22:02.138Z,100821.00
2018-09-11T02:24:32.397Z,100821.00
2018-09-11T02:27:02.923Z,100815.00
2018-09-11T02:29:33.328Z,100818.00
2018-09-11T02:32:03.513Z,100819.00
2018-09-11T02:34:33.791Z,100829.00
2018-09-11T02:37:04.173Z,100836.00
2018-09-11T02:39:34.615Z,100834.00
2018-09-11T02:42:04.849Z,100835.00
2018-09-11T02:44:35.045Z,100836.00
2018-09-11T02:47:05.184Z,100837.00
2018-09-11T02:49:35.373Z,100839.00
2018-09-11T02:52:05.646Z,100843.00
2018-09-11T02:54:35.861Z,100846.00
2018-09-11T02:57:06.203Z,100842.00
2018-09-11T02:59:36.650Z,100842.00
2018-09-11T03:02:06.827Z,100837.00
2018-09-11T03:04:37.113Z,100841.00
2018-09-11T03:07:07.269Z,100845.00
2018-09-11T03:09:37.655Z,100850.00
2018-09-11T03:12:08.020Z,100848.00
2018-09-11T03:14:38.401Z,100850.00
2018-09-11T03:17:08.982Z,100848.00
2018-09-11T03:19:39.313Z,100846.00
2018-09-11T03:22:09.433Z,100842.00
2018-09-11T03:24:39.611Z,100845.00
2018-09-11T03:27:09.994Z,100843.00
2018-09-11T03:29:40.357Z,100846.00
2018-09-11T03:32:10.558Z,100848.00
2018-09-11T03:34:40.874Z,100847.00
2018-09-11T03:37:11.177Z,100852.00
2018-09-11T03:39:41.534Z,100854.00
2018-09-11T03:42:11.994Z,100859.00
2018-09-11T03:44:42.145Z,100864.00
2018-09-11T03:47:12.538Z,100866.00
2018-09-11T03:49:42.690Z,100868.00
2018-09-11T03:52:12.920Z,100867.00
2018-09-11T03:54:43.073Z,100866.00
2018-09-11T03:57:13.557Z,100862.00
2018-09-11T03:59:43.894Z,100857.00
2018-09-11T04:02:14.241Z,100859.00
2018-09-11T04:04:44.478Z,100858.00
2018-09-11T04:07:14.928Z,100863.00
2018-09-11T04:09:48.041Z,100860.00
2018-09-11T04:12:18.484Z,100859.00
2018-09-11T04:14:48.624Z,100854.00
2018-09-11T04:17:18.803Z,100853.00
2018-09-11T04:19:48.937Z,100855.00
2018-09-11T04:22:19.544Z,100859.00
2018-09-11T04:24:49.644Z,100859.00
2018-09-11T04:27:20.140Z,100858.00
2018-09-11T04:29:50.473Z,100858.00
2018-09-11T04:32:20.874Z,100860.00
2018-09-11T04:34:51.045Z,100863.00
2018-09-11T04:37:21.316Z,100866.00
2018-09-11T04:39:51.756Z,100866.00
2018-09-11T04:42:22.641Z,100869.00
2018-09-11T04:44:52.794Z,100871.00
2018-09-11T04:47:23.108Z,100865.00
2018-09-11T04:49:53.268Z,100868.00
2018-09-11T04:52:23.470Z,100876.00
2018-09-11T04:54:53.844Z,100878.00
2018-09-11T04:57:24.046Z,100886.00
2018-09-11T04:59:54.412Z,100894.00
2018-09-11T05:02:24.749Z,100898.00
2018-09-11T05:04:54.945Z,100896.00
2018-09-11T05:07:25.517Z,100898.00
2018-09-11T05:09:55.824Z,100896.00
2018-09-11T05:12:26.830Z,100895.00
2018-09-11T05:14:57.273Z,100902.00
2018-09-11T05:17:27.562Z,100907.00
2018-09-11T05:19:57.914Z,100903.00
2018-09-11T05:22:28.338Z,100897.00
2018-09-11T05:24:59.107Z,100896.00
2018-09-11T05:27:29.560Z,100894.00
2018-09-11T05:29:59.852Z,100895.00
2018-09-11T05:32:30.316Z,100888.00
2018-09-11T05:35:00.597Z,100887.00
2018-09-11T05:37:30.898Z,100885.00
2018-09-11T05:40:01.668Z,100891.00
2018-09-11T05:42:31.928Z,100892.00
2018-09-11T05:45:02.141Z,100894.00
2018-09-11T05:47:32.379Z,100892.00
2018-09-11T05:50:02.573Z,100897.00
2018-09-11T05:52:32.965Z,100902.00
2018-09-11T05:55:03.503Z,100907.00
2018-09-11T05:57:33.856Z,100911.00
2018-09-11T06:00:04.308Z,100917.00
2018-09-11T06:02:35.204Z,100918.00
2018-09-11T06:05:05.785Z,100920.00
2018-09-11T06:07:37.659Z,100919.00
2018-09-11T06:10:08.024Z,100913.00
2018-09-11T06:12:38.854Z,100912.00
2018-09-11T06:15:09.044Z,100906.00
2018-09-11T06:17:39.532Z,100904.00
2018-09-11T06:20:09.917Z,100905.00
2018-09-11T06:22:40.422Z,100906.00
2018-09-11T06:25:14.648Z,100909.00
2018-09-11T06:27:45.133Z,100914.00
2018-09-11T06:30:15.271Z,100914.00
2018-09-11T06:32:45.559Z,100907.00
2018-09-11T06:35:15.953Z,100911.00
2018-09-11T06:37:46.253Z,100918.00
2018-09-11T06:40:16.564Z,100918.00
2018-09-11T06:42:46.881Z,100917.00
2018-09-11T06:45:17.006Z,100919.00
2018-09-11T06:47:49.219Z,100912.00
2018-09-11T06:50:19.486Z,100916.00
2018-09-11T06:52:50.186Z,100918.00
2018-09-11T06:55:21.787Z,100918.00
2018-09-11T06:57:52.697Z,100915.00
2018-09-11T07:00:23.500Z,100918.00
2018-09-11T07:02:54.287Z,100913.00
2018-09-11T07:08:34.194Z,100912.00
2018-09-11T07:11:05.689Z,100912.00
2018-09-11T07:13:36.117Z,100916.00
2018-09-11T07:16:06.801Z,100919.00
2018-09-11T07:18:37.415Z,100926.00
2018-09-11T07:21:07.928Z,100925.00
2018-09-11T07:23:38.311Z,100923.00
2018-09-11T07:26:08.908Z,100920.00
2018-09-11T07:28:39.171Z,100921.00
2018-09-11T07:31:10.032Z,100921.00
2018-09-11T07:33:42.146Z,100926.00
2018-09-11T07:36:14.335Z,100929.00
2018-09-11T07:38:45.475Z,100926.00
2018-09-11T07:41:27.953Z,100928.00
2018-09-11T07:44:12.552Z,100931.00
2018-09-11T07:46:48.564Z,100927.00
2018-09-11T07:49:22.784Z,100926.00
2018-09-11T07:51:56.574Z,100926.00
2018-09-11T07:54:29.995Z,100924.00
2018-09-11T07:57:00.991Z,100925.00
2018-09-11T07:59:33.148Z,100930.00
2018-09-11T08:02:06.110Z,100928.00
2018-09-11T08:04:59.130Z,100925.00
2018-09-11T08:07:29.396Z,100925.00
2018-09-11T08:10:01.200Z,100925.00
2018-09-11T08:19:01.368Z,100929.00
2018-09-11T11:53:15.907Z,100794.00
2018-09-11T11:55:46.304Z,100794.00
2018-09-11T11:58:30.128Z,100796.00
2018-09-11T12:01:00.385Z,100788.00
2018-09-11T12:03:30.797Z,100793.00
2018-09-11T12:06:06.153Z,100785.00
2018-09-11T12:08:36.633Z,100787.00
2018-09-11T12:11:08.673Z,100786.00
2018-09-11T12:13:39.217Z,100789.00
2018-09-11T12:16:09.509Z,100788.00
2018-09-11T12:18:39.918Z,100786.00
2018-09-11T12:21:10.551Z,100777.00
2018-09-11T12:23:42.293Z,100777.00
2018-09-11T12:26:12.620Z,100774.00
2018-09-11T12:28:42.991Z,100771.00
2018-09-11T12:31:13.503Z,100769.00
2018-09-11T12:33:43.952Z,100770.00
2018-09-11T12:36:14.451Z,100767.00
2018-09-11T12:38:45.044Z,100762.00
2018-09-11T12:41:15.375Z,100756.00
2018-09-11T12:43:45.825Z,100757.00
2018-09-11T12:46:16.270Z,100752.00
2018-09-11T12:48:46.659Z,100751.00
2018-09-11T12:51:17.158Z,100751.00
2018-09-11T12:53:47.588Z,100751.00
2018-09-11T12:56:21.212Z,100752.00
2018-09-11T12:58:58.051Z,100744.00
2018-09-11T13:01:58.197Z,100742.00
2018-09-11T13:12:27.886Z,100738.00
2018-09-11T13:14:59.369Z,100738.00
2018-09-11T13:18:06.460Z,100731.00
2018-09-11T13:20:40.963Z,100723.00
2018-09-11T13:23:20.566Z,100730.00
2018-09-11T13:25:56.888Z,100727.00
2018-09-11T14:03:25.462Z,100706.00
2018-09-11T14:05:58.124Z,100704.00
2018-09-11T14:08:29.816Z,100708.00
2018-09-11T14:11:17.042Z,100694.00
2018-09-11T14:13:48.891Z,100687.00
2018-09-11T14:16:29.223Z,100695.00
2018-09-11T14:19:02.196Z,100685.00
2018-09-11T14:21:59.155Z,100683.00
2018-09-11T14:27:46.216Z,100671.00
2018-09-11T14:34:54.382Z,100672.00
2018-09-11T14:37:27.659Z,100673.00
2018-09-11T14:40:14.865Z,100676.00
2018-09-11T14:46:12.123Z,100670.00
2018-09-11T14:48:46.625Z,100666.00
2018-09-11T16:19:30.397Z,100610.00
2018-09-11T16:22:01.791Z,100610.00
2018-09-11T17:02:31.752Z,100591.00
2018-09-11T17:29:01.373Z,100591.00
2018-09-11T17:34:32.262Z,100600.00
2018-09-11T17:37:03.713Z,100602.00
2018-09-11T17:39:34.391Z,100609.00
2018-09-11T17:42:06.014Z,100614.00
2018-09-11T17:44:36.691Z,100612.00
2018-09-11T17:47:08.876Z,100611.00
2018-09-11T17:49:41.566Z,100611.00
2018-09-11T17:52:16.305Z,100613.00
2018-09-11T17:56:10.792Z,100609.00
2018-09-11T17:58:57.791Z,100610.00
2018-09-11T18:01:29.924Z,100609.00
2018-09-11T18:04:00.880Z,100612.00
2018-09-11T18:06:57.978Z,100613.00
2018-09-11T18:09:28.609Z,100619.00
2018-09-11T18:11:59.765Z,100619.00
2018-09-11T18:14:30.827Z,100621.00
2018-09-11T18:17:01.611Z,100629.00
2018-09-11T18:19:33.053Z,100627.00
2018-09-11T18:22:04.315Z,100623.00
2018-09-11T18:24:35.336Z,100622.00
2018-09-11T18:27:18.383Z,100623.00
2018-09-11T18:29:57.699Z,100624.00
2018-09-11T18:32:34.953Z,100627.00
2018-09-11T18:35:07.677Z,100628.00
2018-09-11T18:37:38.672Z,100631.00
2018-09-11T18:40:09.306Z,100633.00
2018-09-11T18:42:54.919Z,100634.00
2018-09-11T18:45:25.843Z,100639.00
2018-09-11T18:47:56.350Z,100645.00
2018-09-11T18:50:26.681Z,100639.00
2018-09-11T18:52:56.944Z,100640.00
2018-09-11T18:55:27.891Z,100642.00
2018-09-11T18:57:58.269Z,100643.00
2018-09-11T19:00:32.107Z,100649.00
2018-09-11T19:03:03.561Z,100654.00
2018-09-11T19:05:33.947Z,100654.00
2018-09-11T19:08:04.363Z,100655.00
2018-09-11T19:10:34.709Z,100650.00
2018-09-11T19:13:05.148Z,100651.00
2018-09-11T19:15:36.323Z,100648.00
2018-09-11T19:18:07.109Z,100656.00
2018-09-11T19:20:37.456Z,100657.00
2018-09-11T19:23:07.753Z,100662.00
2018-09-11T19:25:38.167Z,100660.00
2018-09-11T19:28:11.668Z,100660.00
2018-09-11T19:30:41.965Z,100655.00
2018-09-11T19:33:12.678Z,100656.00
2018-09-11T19:35:43.133Z,100654.00
2018-09-11T19:38:13.662Z,100659.00
2018-09-11T19:40:44.174Z,100649.00
2018-09-11T19:43:14.609Z,100650.00
2018-09-11T19:45:45.063Z,100651.00
2018-09-11T19:48:15.709Z,100650.00
2018-09-11T19:50:46.497Z,100650.00
2018-09-11T19:53:16.931Z,100653.00
2018-09-11T19:55:47.399Z,100655.00
2018-09-11T19:58:18.115Z,100658.00
2018-09-11T20:00:48.653Z,100662.00
2018-09-11T20:03:19.409Z,100664.00
2018-09-11T20:05:50.753Z,100659.00
2018-09-11T20:08:21.850Z,100665.00
2018-09-11T20:10:52.733Z,100667.00
2018-09-11T20:13:24.901Z,100670.00
2018-09-11T20:15:58.919Z,100671.00
2018-09-11T20:18:34.330Z,100669.00
2018-09-11T20:21:05.009Z,100668.00
2018-09-11T20:23:36.802Z,100671.00
2018-09-11T20:26:11.028Z,100672.00
2018-09-11T20:28:41.938Z,100670.00
2018-09-11T20:31:13.213Z,100672.00
2018-09-11T20:33:45.418Z,100679.00
2018-09-11T20:36:16.165Z,100677.00
2018-09-11T20:38:46.628Z,100681.00
2018-09-11T20:41:17.000Z,100680.00
2018-09-11T20:43:47.449Z,100689.00
2018-09-11T20:46:17.965Z,100686.00
2018-09-11T20:48:48.353Z,100684.00
2018-09-11T20:51:18.821Z,100691.00
2018-09-11T20:53:49.449Z,100684.00
2018-09-11T20:56:20.168Z,100686.00
2018-09-11T20:58:50.681Z,100687.00
2018-09-11T21:01:21.224Z,100689.00
2018-09-11T21:03:51.769Z,100690.00
2018-09-11T21:06:22.633Z,100689.00
2018-09-11T21:08:53.124Z,100689.00
2018-09-11T21:11:23.654Z,100695.00
2018-09-11T21:13:54.250Z,100701.00
2018-09-11T21:16:35.147Z,100703.00
2018-09-11T21:19:05.620Z,100702.00
2018-09-11T21:21:36.110Z,100703.00
2018-09-11T21:24:06.759Z,100705.00
2018-09-11T21:26:37.770Z,100705.00
2018-09-11T21:29:18.534Z,100706.00
2018-09-11T21:31:48.907Z,100709.00
2018-09-11T21:34:19.347Z,100715.00
2018-09-11T21:36:49.797Z,100713.00
2018-09-11T21:42:19.579Z,100714.00
2018-09-11T21:44:50.066Z,100707.00
2018-09-11T21:47:20.467Z,100705.00
2018-09-11T21:49:54.046Z,100703.00
2018-09-11T21:52:24.525Z,100707.00
2018-09-11T21:54:55.289Z,100708.00
2018-09-11T21:57:25.799Z,100707.00
2018-09-11T21:59:56.399Z,100703.00
2018-09-11T22:02:26.818Z,100702.00
2018-09-11T22:04:57.400Z,100702.00
2018-09-11T22:07:27.886Z,100712.00
2018-09-11T22:09:58.316Z,100713.00
2018-09-11T22:12:28.689Z,100708.00
2018-09-11T22:14:59.692Z,100714.00
2018-09-11T22:17:30.154Z,100713.00
2018-09-11T22:20:00.550Z,100715.00
2018-09-11T22:22:31.332Z,100716.00
2018-09-11T22:25:01.718Z,100711.00
2018-09-11T22:27:31.990Z,100711.00
2018-09-11T22:30:02.300Z,100711.00
2018-09-11T22:32:32.785Z,100710.00
2018-09-11T22:35:03.147Z,100707.00
2018-09-11T22:37:33.611Z,100709.00
2018-09-11T22:40:28.630Z,100710.00
2018-09-11T22:42:59.337Z,100712.00
2018-09-11T22:45:31.082Z,100709.00
2018-09-11T22:48:01.536Z,100712.00
2018-09-11T22:50:32.298Z,100711.00
2018-09-11T22:53:02.640Z,100710.00
2018-09-11T22:55:33.110Z,100707.00
2018-09-11T22:58:03.971Z,100712.00
2018-09-11T23:00:34.894Z,100711.00
2018-09-11T23:03:05.304Z,100705.00
2018-09-11T23:05:35.827Z,100706.00
2018-09-11T23:08:06.702Z,100705.00
2018-09-11T23:10:37.252Z,100698.00
2018-09-11T23:13:07.757Z,100692.00
2018-09-11T23:15:38.302Z,100696.00
2018-09-11T23:18:08.846Z,100696.00
2018-09-11T23:20:39.495Z,100691.00
2018-09-11T23:23:10.290Z,100692.00
2018-09-11T23:25:40.791Z,100695.00
2018-09-11T23:28:11.162Z,100695.00
2018-09-11T23:30:42.475Z,100692.00
2018-09-11T23:33:13.233Z,100692.00
2018-09-11T23:35:43.653Z,100698.00
2018-09-11T23:38:14.286Z,100697.00
2018-09-11T23:40:44.720Z,100695.00
2018-09-11T23:43:15.111Z,100695.00
2018-09-11T23:45:45.632Z,100695.00
2018-09-11T23:48:16.399Z,100690.00
2018-09-11T23:50:47.374Z,100691.00
2018-09-11T23:53:18.423Z,100685.00
2018-09-11T23:55:48.980Z,100682.00
2018-09-11T23:58:19.978Z,100680.00
